Time;durP1;ratioP1;P1;durP2;ratioP2;P2;SDS_P1;SDS_P2;PMS_P1;PMS_P2;Temp;Humidity;BMP_temperature;BMP_pressure;BME280_temperature;BME280_humidity;BME280_pressure;Samples;Min_cycle;Max_cycle;Signal;HPM_P1;HPM_P2
2021/06/12 00:00:58;;;;;;;10.10;8.07;;;;;;;16.32;100.00;100018.38;6289770;22;20007;-79
2021/06/12 00:03:25;;;;;;;24.95;10.30;;;;;;;16.07;100.00;100015.38;6290145;22;20011;-78
2021/06/12 00:06:11;;;;;;;26.08;10.55;;;;;;;16.06;100.00;100022.25;6289945;22;20058;-78
2021/06/12 00:08:56;;;;;;;20.20;12.15;;;;;;;16.24;100.00;100018.75;6317191;22;20018;-78
2021/06/12 00:11:22;;;;;;;51.65;10.15;;;;;;;15.95;100.00;100023.66;6289737;22;20047;-77
2021/06/12 00:13:49;;;;;;;34.72;9.95;;;;;;;15.83;100.00;100025.09;6289942;22;20061;-77
2021/06/12 00:16:35;;;;;;;16.15;9.88;;;;;;;15.97;100.00;100025.25;6289602;22;19999;-78
2021/06/12 00:19:00;;;;;;;15.80;9.93;;;;;;;15.74;100.00;100019.59;6289875;22;20145;-77
2021/06/12 00:21:37;;;;;;;14.27;8.65;;;;;;;15.74;100.00;100019.59;6317283;22;20030;-77
2021/06/12 00:24:15;;;;;;;55.10;9.30;;;;;;;15.47;100.00;100022.56;6289449;22;20011;-77
2021/06/12 00:26:40;;;;;;;36.58;9.70;;;;;;;15.71;100.00;100019.75;6289295;22;20063;-77
2021/06/12 00:29:53;;;;;;;37.00;10.13;;;;;;;15.66;100.00;100019.13;6316424;22;20272;-77
2021/06/12 00:32:43;;;;;;;25.85;9.50;;;;;;;15.93;100.00;100017.78;6316855;22;20442;-78
2021/06/12 00:35:43;;;;;;;64.07;12.07;;;;;;;15.95;100.00;100018.53;6289443;22;20007;-78
2021/06/12 00:38:23;;;;;;;56.30;11.85;;;;;;;15.55;100.00;100014.50;6289160;22;20010;-78
2021/06/12 00:41:02;;;;;;;82.18;10.95;;;;;;;15.45;100.00;100018.44;6289070;22;20415;-78
2021/06/12 00:44:08;;;;;;;241.05;15.05;;;;;;;15.12;100.00;100023.34;6316653;22;20003;-77
2021/06/12 00:47:20;;;;;;;64.45;10.88;;;;;;;15.70;100.00;100028.34;6316392;22;20010;-77
2021/06/12 00:49:45;;;;;;;64.47;9.80;;;;;;;15.32;100.00;100027.53;6282726;22;20039;-78
2021/06/12 00:52:24;;;;;;;61.03;8.52;;;;;;;15.29;100.00;100023.38;6284219;22;20116;-77
2021/06/12 00:55:08;;;;;;;49.28;9.73;;;;;;;15.47;100.00;100025.13;6284145;22;20067;-77
2021/06/12 00:57:44;;;;;;;24.65;8.20;;;;;;;15.69;100.00;100026.69;6284055;22;20096;-77
2021/06/12 01:00:58;;;;;;;39.38;8.05;;;;;;;15.50;100.00;100022.44;6285269;22;20023;-78
2021/06/12 01:03:28;;;;;;;43.78;8.88;;;;;;;15.17;100.00;100026.50;6285849;22;20060;-78
2021/06/12 01:05:57;;;;;;;47.45;8.75;;;;;;;15.20;100.00;100023.81;6284172;22;20019;-77
2021/06/12 01:08:26;;;;;;;40.13;8.68;;;;;;;15.37;100.00;100025.63;6285236;22;20092;-77
2021/06/12 01:14:21;;;;;;;13.15;7.38;;;;;;;15.40;100.00;100028.84;6286390;22;20024;-76
2021/06/12 01:17:01;;;;;;;10.32;7.00;;;;;;;15.43;100.00;100036.41;6285403;22;20012;-77
2021/06/12 01:20:09;;;;;;;10.80;7.10;;;;;;;15.43;100.00;100036.41;6284207;22;20008;-77
2021/06/12 01:22:46;;;;;;;10.70;6.75;;;;;;;15.81;100.00;100036.31;6283852;22;20018;-77
2021/06/12 01:25:35;;;;;;;9.50;6.72;;;;;;;15.73;100.00;100036.69;6285580;22;20011;-78
2021/06/12 01:31:24;;;;;;;9.23;6.40;;;;;;;15.25;100.00;100028.75;6286024;22;20009;-77
2021/06/12 01:33:57;;;;;;;9.45;6.50;;;;;;;15.35;100.00;100033.34;6285280;22;20233;-78
2021/06/12 01:40:00;;;;;;;9.10;6.40;;;;;;;15.24;100.00;100025.34;6285460;22;20017;-78
2021/06/12 01:42:59;;;;;;;7.75;6.07;;;;;;;15.17;100.00;100029.06;6284254;22;20267;-77
2021/06/12 01:48:48;;;;;;;11.32;6.38;;;;;;;15.72;100.00;100023.97;6285379;22;20036;-78
2021/06/12 01:51:30;;;;;;;8.02;6.65;;;;;;;16.15;100.00;100023.50;6283821;22;20371;-76
2021/06/12 01:54:08;;;;;;;7.10;6.38;;;;;;;15.77;100.00;100024.59;6285156;22;20335;-79
2021/06/12 01:56:39;;;;;;;7.70;6.18;;;;;;;15.79;100.00;100033.84;6283368;22;20044;-78
2021/06/12 01:59:12;;;;;;;7.20;6.47;;;;;;;15.81;100.00;100036.31;6285717;22;20366;-79
2021/06/12 02:01:53;;;;;;;8.43;6.30;;;;;;;15.79;100.00;100033.84;6284798;22;20011;-78
2021/06/12 02:05:04;;;;;;;6.77;6.07;;;;;;;15.78;100.00;100036.50;6287473;22;20031;-78
2021/06/12 02:11:25;;;;;;;6.95;5.70;;;;;;;16.04;100.00;100033.50;6288069;22;20070;-79
2021/06/12 02:14:26;;;;;;;8.60;6.20;;;;;;;15.73;100.00;100046.16;6285761;22;20019;-78
2021/06/12 02:17:01;;;;;;;7.50;5.80;;;;;;;15.74;100.00;100045.22;6286948;22;20241;-80
2021/06/12 02:20:06;;;;;;;6.43;5.82;;;;;;;16.17;100.00;100034.53;6285613;22;20077;-80
2021/06/12 02:22:46;;;;;;;10.75;5.68;;;;;;;15.88;100.00;100041.09;6285281;22;20010;-79
2021/06/12 02:25:50;;;;;;;6.90;5.82;;;;;;;16.04;100.00;100039.44;6287254;22;20031;-79
2021/06/12 02:28:27;;;;;;;67.97;61.30;;;;;;;16.08;100.00;100040.97;6287184;22;20003;-79
2021/06/12 02:31:03;;;;;;;30.15;26.95;;;;;;;15.76;100.00;100041.69;6285723;22;20047;-78
2021/06/12 02:33:30;;;;;;;8.35;6.22;;;;;;;16.35;100.00;100038.75;6286938;22;20052;-78
2021/06/12 02:36:05;;;;;;;7.18;5.70;;;;;;;16.29;100.00;100046.75;6285195;22;20011;-77
2021/06/12 02:38:35;;;;;;;9.02;6.10;;;;;;;16.15;100.00;100044.03;6285143;22;20036;-77
2021/06/12 02:41:13;;;;;;;9.60;7.65;;;;;;;16.17;100.00;100049.91;6286708;22;20004;-77
2021/06/12 02:47:04;;;;;;;11.57;7.40;;;;;;;16.34;100.00;100049.94;6286736;22;20011;-79
2021/06/12 02:49:36;;;;;;;9.55;6.10;;;;;;;15.88;100.00;100064.19;6293693;22;20011;-79
2021/06/12 02:55:24;;;;;;;8.38;6.35;;;;;;;15.94;100.00;100061.31;6317899;22;20387;-80
2021/06/12 02:58:26;;;;;;;9.35;6.65;;;;;;;15.84;100.00;100060.09;6317324;22;20031;-78
2021/06/12 03:01:27;;;;;;;9.93;6.32;;;;;;;15.70;100.00;100064.22;6290256;22;20010;-78
2021/06/12 03:04:15;;;;;;;11.65;7.05;;;;;;;16.02;100.00;100066.06;6317745;22;20007;-78
2021/06/12 03:06:50;;;;;;;10.90;7.43;;;;;;;15.79;100.00;100056.06;6317342;22;20007;-77
2021/06/12 03:09:43;;;;;;;12.40;7.63;;;;;;;16.11;100.00;100065.59;6290411;22;20336;-77
2021/06/12 03:12:31;;;;;;;15.02;8.00;;;;;;;16.24;100.00;100066.69;6289859;22;20006;-77
2021/06/12 03:15:24;;;;;;;12.02;8.65;;;;;;;15.93;100.00;100077.59;6318349;22;20076;-77
2021/06/12 03:18:10;;;;;;;11.75;8.23;;;;;;;16.40;100.00;100077.84;6318178;22;20011;-79
2021/06/12 03:20:42;;;;;;;16.17;8.75;;;;;;;15.84;100.00;100078.06;6290554;22;20011;-78
2021/06/12 03:23:17;;;;;;;11.55;8.10;;;;;;;16.02;100.00;100078.91;6290379;22;20003;-79
2021/06/12 03:26:11;;;;;;;15.18;8.60;;;;;;;16.11;100.00;100084.41;6289834;22;20098;-79
2021/06/12 03:28:54;;;;;;;16.48;8.52;;;;;;;16.21;100.00;100082.22;6289915;22;20007;-78
2021/06/12 03:31:30;;;;;;;12.35;7.93;;;;;;;15.96;100.00;100076.63;6290145;22;20010;-77
2021/06/12 03:34:05;;;;;;;12.38;8.60;;;;;;;16.37;100.00;100076.25;6289793;22;20003;-77
2021/06/12 03:37:12;;;;;;;13.52;8.82;;;;;;;16.12;100.00;100075.78;6317441;22;20022;-77
2021/06/12 03:39:38;;;;;;;13.70;8.52;;;;;;;16.43;100.00;100082.81;6289832;22;20003;-77
2021/06/12 03:42:21;;;;;;;15.80;8.77;;;;;;;16.65;100.00;100064.63;6317302;22;20444;-77
2021/06/12 03:44:58;;;;;;;14.95;9.80;;;;;;;16.17;100.00;100078.97;6290310;22;20023;-79
2021/06/12 03:48:02;;;;;;;16.33;9.90;;;;;;;16.43;100.00;100077.69;6290251;22;20019;-79
2021/06/12 03:50:29;;;;;;;11.50;8.60;;;;;;;16.95;100.00;100065.59;6317190;22;20039;-78
2021/06/12 03:53:43;;;;;;;16.00;9.65;;;;;;;16.57;100.00;100084.72;6289306;22;20015;-80
2021/06/12 03:56:33;;;;;;;12.60;9.75;;;;;;;16.53;100.00;100076.34;6290031;22;20241;-76
2021/06/12 03:59:17;;;;;;;12.98;9.75;;;;;;;16.65;100.00;100077.44;6317170;22;20007;-76
2021/06/12 04:02:06;;;;;;;13.68;9.93;;;;;;;16.88;100.00;100074.50;6286240;22;20038;-76
2021/06/12 04:04:48;;;;;;;17.58;10.48;;;;;;;17.07;100.00;100086.31;6288508;22;20091;-74
2021/06/12 04:07:17;;;;;;;16.33;10.00;;;;;;;17.15;100.00;100083.34;6288351;22;20003;-75
2021/06/12 04:09:46;;;;;;;15.73;9.45;;;;;;;17.37;100.00;100088.19;6287624;22;20084;-74
2021/06/12 04:12:41;;;;;;;17.90;10.23;;;;;;;17.08;100.00;100087.16;6316168;22;20011;-79
2021/06/12 04:15:16;;;;;;;17.83;10.70;;;;;;;17.38;100.00;100088.09;6288855;22;20324;-74
2021/06/12 04:17:46;;;;;;;16.67;11.13;;;;;;;17.64;100.00;100091.84;6288472;22;20108;-74
2021/06/12 04:20:14;;;;;;;14.93;11.80;;;;;;;17.76;100.00;100084.28;6315164;22;20061;-75
2021/06/12 04:22:41;;;;;;;17.02;11.70;;;;;;;17.26;100.00;100091.31;6314684;22;20118;-76
2021/06/12 04:25:36;;;;;;;19.48;11.52;;;;;;;17.10;100.00;100090.47;6288282;22;20352;-74
2021/06/12 04:28:07;;;;;;;16.02;12.10;;;;;;;17.24;100.00;100090.56;6316191;22;20063;-75
2021/06/12 04:31:16;;;;;;;15.07;12.52;;;;;;;17.34;100.00;100095.13;6314813;22;20014;-77
2021/06/12 04:33:45;;;;;;;16.48;11.77;;;;;;;17.19;100.00;100093.38;6288366;22;20013;-75
2021/06/12 04:36:22;;;;;;;14.00;12.30;;;;;;;16.98;100.00;100098.81;6287754;22;20095;-75
2021/06/12 04:38:47;;;;;;;18.02;12.57;;;;;;;17.54;100.00;100096.66;6287302;22;20014;-73
2021/06/12 04:41:23;;;;;;;19.83;13.13;;;;;;;17.37;100.00;100098.47;6288737;22;20368;-75
2021/06/12 04:43:49;;;;;;;16.30;13.00;;;;;;;17.56;100.00;100099.97;6287866;22;20021;-74
2021/06/12 04:46:22;;;;;;;19.52;12.98;;;;;;;17.76;100.00;100101.44;6315393;22;20007;-73
2021/06/12 04:49:02;;;;;;;19.98;12.52;;;;;;;17.64;100.00;100102.97;6315773;22;20366;-75
2021/06/12 04:51:40;;;;;;;17.80;13.35;;;;;;;17.69;100.00;100100.94;6255081;22;20228;-75
2021/06/12 04:54:16;;;;;;;17.27;12.63;;;;;;;17.37;100.00;100108.75;6254264;22;20008;-77
2021/06/12 04:56:47;;;;;;;19.65;13.18;;;;;;;17.80;100.00;100108.09;6253131;23;20008;-76
2021/06/12 04:59:13;;;;;;;18.35;11.50;;;;;;;17.84;100.00;100112.16;6254388;22;20263;-76
2021/06/12 05:01:53;;;;;;;20.05;12.25;;;;;;;18.29;100.00;100108.72;6277814;22;20105;-75
2021/06/12 05:04:19;;;;;;;21.63;12.60;;;;;;;17.95;100.00;100110.63;6254232;22;20027;-76
2021/06/12 05:06:49;;;;;;;17.17;12.55;;;;;;;18.18;100.00;100117.06;6254084;22;20371;-76
2021/06/12 05:09:39;;;;;;;15.68;12.52;;;;;;;17.75;100.00;100120.34;6254732;22;20378;-75
2021/06/12 05:12:09;;;;;;;16.10;12.25;;;;;;;18.27;100.00;100121.69;6277345;22;20016;-76
2021/06/12 05:14:59;;;;;;;17.98;12.60;;;;;;;18.16;100.00;100127.41;6278280;22;20015;-75
2021/06/12 05:17:26;;;;;;;18.88;12.48;;;;;;;17.92;100.00;100123.69;6253934;22;20393;-74
2021/06/12 05:19:55;;;;;;;16.30;12.55;;;;;;;18.01;100.00;100127.47;6253853;22;20011;-75
2021/06/12 05:22:57;;;;;;;19.85;12.25;;;;;;;18.78;100.00;100128.13;6252399;23;20342;-76
2021/06/12 05:25:59;;;;;;;14.73;12.35;;;;;;;18.79;100.00;100133.22;6252554;23;20024;-76
2021/06/12 05:29:17;;;;;;;17.20;12.93;;;;;;;18.58;100.00;100131.09;6252826;23;20015;-76
2021/06/12 05:35:06;;;;;;;17.60;13.20;;;;;;;18.62;100.00;100125.63;6254433;23;20097;-76
2021/06/12 05:37:34;;;;;;;13.85;12.38;;;;;;;18.75;100.00;100129.16;6253956;23;20131;-75
2021/06/12 05:40:00;;;;;;;18.80;13.05;;;;;;;18.74;100.00;100137.81;6255541;22;20105;-74
2021/06/12 05:42:28;;;;;;;15.00;13.05;;;;;;;18.79;100.00;100132.38;6254086;23;20278;-74
2021/06/12 05:45:11;;;;;;;18.95;12.63;;;;;;;19.05;100.00;100129.91;6256533;22;20101;-75
2021/06/12 05:47:44;;;;;;;16.17;12.38;;;;;;;19.12;100.00;100125.22;6255418;22;20359;-75
2021/06/12 05:50:35;;;;;;;17.65;12.75;;;;;;;19.42;100.00;100132.84;6267605;22;20019;-75
2021/06/12 05:53:15;;;;;;;16.33;13.00;;;;;;;19.08;100.00;100131.47;6253998;23;20097;-75
2021/06/12 05:55:58;;;;;;;17.23;14.13;;;;;;;19.09;100.00;100132.31;6255513;22;20346;-75
2021/06/12 05:58:27;;;;;;;16.50;13.80;;;;;;;19.24;100.00;100128.78;6255397;22;20027;-75
2021/06/12 06:01:00;;;;;;;19.80;13.23;;;;;;;19.80;100.00;100145.03;6255651;23;20030;-75
2021/06/12 06:03:42;;;;;;;16.67;13.73;;;;;;;19.79;100.00;100133.03;6253956;23;20477;-75
2021/06/12 06:06:12;;;;;;;16.90;11.98;;;;;;;19.70;100.00;100132.78;6253623;23;20040;-75
2021/06/12 06:08:37;;;;;;;17.10;12.43;;;;;;;19.73;100.00;100127.44;6253837;23;20094;-75
2021/06/12 06:11:19;;;;;;;14.38;12.38;;;;;;;19.76;100.00;100127.25;6255627;22;20363;-76
2021/06/12 06:13:51;;;;;;;17.63;13.20;;;;;;;19.89;100.00;100133.28;6255737;22;20078;-76
2021/06/12 06:16:48;;;;;;;15.00;13.07;;;;;;;20.05;100.00;100131.38;6253927;23;20008;-76
2021/06/12 06:19:15;;;;;;;20.60;12.98;;;;;;;19.91;100.00;100130.63;6254197;23;20317;-76
2021/06/12 06:21:40;;;;;;;17.92;12.57;;;;;;;20.14;100.00;100135.97;6255207;22;20127;-76
2021/06/12 06:24:06;;;;;;;15.82;12.38;;;;;;;20.36;100.00;100140.59;6255107;22;20382;-76
2021/06/12 06:26:32;;;;;;;18.67;11.68;;;;;;;20.25;100.00;100138.69;6253197;23;20014;-75
2021/06/12 06:28:57;;;;;;;15.23;11.50;;;;;;;20.11;100.00;100136.16;6253752;23;20024;-76
2021/06/12 06:31:23;;;;;;;13.18;11.68;;;;;;;19.87;100.00;100138.53;6253476;23;20014;-76
2021/06/12 06:33:48;;;;;;;13.43;11.63;;;;;;;20.29;100.00;100136.72;6253734;23;20028;-76
2021/06/12 06:36:14;;;;;;;15.52;10.88;;;;;;;20.09;100.00;100140.56;6255109;22;20031;-76
2021/06/12 06:38:40;;;;;;;14.70;11.23;;;;;;;20.26;100.00;100132.63;6254882;23;20012;-74
2021/06/12 06:41:06;;;;;;;20.58;17.45;;;;;;;20.29;100.00;100135.00;6254994;23;20008;-76
2021/06/12 06:43:31;;;;;;;15.82;14.00;;;;;;;20.28;100.00;100128.16;6254789;22;20270;-76
2021/06/12 06:45:57;;;;;;;17.40;12.80;;;;;;;19.88;100.00;100129.88;6253119;23;20015;-75
2021/06/12 06:48:22;;;;;;;22.98;12.52;;;;;;;20.38;100.00;100133.56;6252944;23;20089;-75
2021/06/12 06:50:47;;;;;;;13.07;10.57;;;;;;;20.70;100.00;100127.91;6259684;22;20116;-75
2021/06/12 06:53:15;;;;;;;12.90;10.63;;;;;;;20.24;100.00;100128.47;6284106;22;20374;-75
2021/06/12 06:55:41;;;;;;;11.27;10.07;;;;;;;20.91;100.00;100125.63;6285335;22;20097;-74
2021/06/12 06:58:06;;;;;;;13.35;9.45;;;;;;;20.51;100.00;100124.06;6285195;22;20035;-75
2021/06/12 07:00:32;;;;;;;13.38;9.82;;;;;;;21.10;98.42;100118.28;6283328;22;20010;-75
2021/06/12 07:02:59;;;;;;;14.75;9.65;;;;;;;21.25;98.68;100119.81;6285625;22;20018;-75
2021/06/12 07:05:25;;;;;;;11.48;9.93;;;;;;;21.20;98.72;100116.72;6284138;22;20243;-75
2021/06/12 07:07:50;;;;;;;12.77;9.57;;;;;;;21.08;98.31;100124.50;6283722;22;20026;-75
2021/06/12 07:10:16;;;;;;;11.30;9.93;;;;;;;21.58;97.50;100117.47;6285471;22;20007;-74
2021/06/12 07:12:41;;;;;;;12.95;9.77;;;;;;;21.66;95.97;100122.09;6283342;22;20007;-74
2021/06/12 07:15:09;;;;;;;11.95;9.35;;;;;;;22.05;94.86;100119.22;6283513;22;20011;-74
2021/06/12 07:17:34;;;;;;;12.18;9.88;;;;;;;21.50;96.24;100114.59;6285122;22;20008;-74
2021/06/12 07:20:01;;;;;;;12.20;9.95;;;;;;;22.27;93.59;100116.72;6285084;22;20008;-74
2021/06/12 07:22:27;;;;;;;10.27;8.45;;;;;;;22.22;93.27;100118.00;6282954;22;20008;-76
2021/06/12 07:24:53;;;;;;;9.60;7.90;;;;;;;22.92;90.62;100110.97;6285111;22;20004;-75
2021/06/12 07:27:18;;;;;;;9.55;7.28;;;;;;;23.54;88.47;100117.31;6285208;22;20385;-75
2021/06/12 07:29:44;;;;;;;11.75;7.30;;;;;;;23.67;86.55;100117.97;6285259;22;20357;-75
2021/06/12 07:32:09;;;;;;;9.77;6.43;;;;;;;23.56;85.13;100112.00;6284937;22;20028;-76
2021/06/12 07:34:35;;;;;;;6.63;5.78;;;;;;;23.91;81.33;100117.78;6283649;22;20010;-76
2021/06/12 07:37:00;;;;;;;7.53;5.70;;;;;;;24.37;79.13;100114.88;6283481;22;20012;-75
2021/06/12 07:39:27;;;;;;;8.30;5.95;;;;;;;23.38;81.97;100122.06;6283646;22;20015;-75
2021/06/12 07:41:54;;;;;;;5.90;5.30;;;;;;;23.66;81.57;100118.09;6283550;22;20023;-75
2021/06/12 07:44:19;;;;;;;7.93;5.32;;;;;;;23.44;81.82;100116.38;6285591;22;20238;-75
2021/06/12 07:46:45;;;;;;;7.43;5.78;;;;;;;23.66;81.39;100116.34;6284792;22;20019;-76
2021/06/12 07:49:11;;;;;;;7.05;5.40;;;;;;;23.22;81.29;100111.19;6283652;22;20350;-74
2021/06/12 07:51:38;;;;;;;8.30;5.22;;;;;;;23.75;78.23;100114.78;6302017;22;20038;-74
2021/06/12 07:54:04;;;;;;;5.90;5.30;;;;;;;23.93;79.85;100114.13;6315433;22;20400;-74
2021/06/12 07:56:30;;;;;;;7.93;4.90;;;;;;;24.04;78.68;100115.88;6315707;22;20007;-74
2021/06/12 07:58:55;;;;;;;6.88;4.97;;;;;;;24.38;77.47;100111.34;6287390;22;20363;-75
2021/06/12 08:01:21;;;;;;;5.32;4.65;;;;;;;23.29;77.82;100117.56;6315714;22;20007;-74
2021/06/12 08:04:24;;;;;;;8.80;5.00;;;;;;;23.95;78.29;100112.22;6288105;22;20017;-74
2021/06/12 08:06:49;;;;;;;7.22;4.50;;;;;;;23.65;78.05;100109.47;6315417;22;20019;-73
2021/06/12 08:09:15;;;;;;;9.40;4.60;;;;;;;23.75;78.08;100099.19;6315404;22;20015;-74
2021/06/12 08:11:40;;;;;;;5.07;4.57;;;;;;;24.01;76.72;100116.09;6287780;22;20003;-74
2021/06/12 08:14:06;;;;;;;5.65;4.40;;;;;;;23.81;78.12;100107.31;6287651;22;20018;-74
2021/06/12 08:16:31;;;;;;;7.03;4.60;;;;;;;23.94;76.87;100100.19;6315525;22;20023;-74
2021/06/12 08:18:57;;;;;;;5.35;4.30;;;;;;;23.97;77.49;100105.13;6315425;22;20034;-75
2021/06/12 08:21:22;;;;;;;4.93;4.10;;;;;;;24.66;75.15;100102.88;6288399;22;20372;-75
2021/06/12 08:23:48;;;;;;;5.90;4.22;;;;;;;24.29;75.16;100104.28;6316058;22;20076;-75
2021/06/12 08:26:13;;;;;;;4.95;4.22;;;;;;;24.46;73.31;100095.94;6288359;22;20332;-75
2021/06/12 08:28:38;;;;;;;5.93;4.10;;;;;;;24.83;72.08;100097.94;6288640;22;20003;-76
2021/06/12 08:31:06;;;;;;;8.75;5.00;;;;;;;24.12;74.26;100110.88;6315959;22;20100;-76
2021/06/12 08:33:31;;;;;;;4.97;4.47;;;;;;;25.24;71.68;100096.97;6315677;22;20048;-75
2021/06/12 08:35:57;;;;;;;4.47;3.92;;;;;;;25.64;70.77;100094.34;6315467;22;20007;-76
2021/06/12 08:38:22;;;;;;;6.57;4.30;;;;;;;24.88;72.32;100103.56;6315247;22;20393;-75
2021/06/12 08:40:48;;;;;;;4.90;4.43;;;;;;;25.14;70.16;100096.13;6287578;22;20011;-75
2021/06/12 08:43:27;;;;;;;4.28;3.85;;;;;;;25.34;67.99;100095.22;6287607;22;20017;-75
2021/06/12 08:45:56;;;;;;;4.40;4.00;;;;;;;25.55;67.94;100095.97;6315590;22;20362;-75
2021/06/12 08:48:23;;;;;;;4.40;4.00;;;;;;;25.61;66.47;100086.81;6315130;22;20108;-74
2021/06/12 08:50:49;;;;;;;4.57;3.85;;;;;;;26.01;66.53;100092.69;6315200;22;20069;-75
2021/06/12 08:53:15;;;;;;;5.40;4.07;;;;;;;24.96;66.72;100091.69;6315223;22;20011;-75
2021/06/12 08:55:42;;;;;;;5.13;3.60;;;;;;;25.71;65.63;100082.44;6287744;22;20010;-75
2021/06/12 08:58:08;;;;;;;3.92;3.53;;;;;;;26.35;62.08;100086.09;6287777;22;20319;-76
2021/06/12 09:00:33;;;;;;;5.68;3.30;;;;;;;26.50;60.63;100087.28;6315699;22;20008;-73
2021/06/12 09:03:08;;;;;;;4.22;3.47;;;;;;;25.99;61.11;100089.41;6287770;22;20015;-75
2021/06/12 09:05:53;;;;;;;5.40;3.50;;;;;;;26.03;59.67;100082.16;6288010;22;20014;-74
2021/06/12 09:08:57;;;;;;;5.15;3.25;;;;;;;26.43;59.01;100083.63;6315376;22;20366;-75
2021/06/12 09:11:23;;;;;;;4.72;3.40;;;;;;;26.67;59.06;100082.31;6289471;22;20350;-75
2021/06/12 09:13:50;;;;;;;3.63;3.33;;;;;;;26.62;60.40;100078.34;6317236;22;20014;-75
2021/06/12 09:16:28;;;;;;;4.07;3.35;;;;;;;26.03;59.20;100075.13;6290049;22;20137;-75
2021/06/12 09:18:56;;;;;;;4.53;3.08;;;;;;;26.86;59.35;100069.22;6289631;22;20007;-76
2021/06/12 09:21:47;;;;;;;3.72;3.15;;;;;;;27.44;55.92;100068.78;6289794;22;20043;-76
2021/06/12 09:24:35;;;;;;;3.40;3.10;;;;;;;27.62;55.61;100078.41;6317253;22;20013;-76
2021/06/12 09:27:03;;;;;;;4.13;3.30;;;;;;;27.32;55.01;100064.72;6317185;22;20374;-76
2021/06/12 09:29:38;;;;;;;4.03;3.40;;;;;;;26.71;55.38;100066.25;6317099;22;20311;-76
2021/06/12 09:32:19;;;;;;;2.95;2.75;;;;;;;27.47;52.09;100069.47;6289428;22;20007;-76
2021/06/12 09:34:47;;;;;;;4.18;3.10;;;;;;;28.42;50.40;100073.03;6289512;22;20354;-76
2021/06/12 09:37:25;;;;;;;4.20;2.80;;;;;;;26.76;54.38;100064.03;6317337;22;20027;-76
2021/06/12 09:40:27;;;;;;;3.28;2.97;;;;;;;26.24;55.27;100056.75;6317237;22;20015;-76
2021/06/12 09:42:55;;;;;;;5.40;2.83;;;;;;;25.82;53.64;100065.81;6286389;22;20262;-76
2021/06/12 09:45:27;;;;;;;3.22;2.90;;;;;;;25.67;55.15;100065.44;6318719;22;20073;-76
2021/06/12 09:48:15;;;;;;;3.00;2.70;;;;;;;25.31;57.96;100077.28;6289973;22;20278;-76
2021/06/12 09:50:42;;;;;;;3.55;2.75;;;;;;;24.76;63.93;100068.19;6289537;22;20342;-76
2021/06/12 09:53:18;;;;;;;4.75;2.90;;;;;;;24.07;67.42;100074.88;6316612;22;20062;-77
2021/06/12 09:55:44;;;;;;;5.47;2.85;;;;;;;24.28;67.41;100067.09;6316820;22;20474;-75
2021/06/12 09:58:10;;;;;;;8.88;3.20;;;;;;;24.39;67.39;100063.56;6317032;22;20014;-76
2021/06/12 10:00:41;;;;;;;4.03;3.00;;;;;;;23.87;67.17;100073.03;6289189;22;20007;-76
2021/06/12 10:03:26;;;;;;;3.50;2.88;;;;;;;23.87;68.25;100062.66;6289736;22;20014;-76
2021/06/12 10:06:13;;;;;;;4.05;3.03;;;;;;;24.19;67.64;100067.00;6316989;22;20014;-76
2021/06/12 10:08:41;;;;;;;11.43;4.15;;;;;;;23.96;68.46;100068.88;6289272;22;20007;-76
2021/06/12 10:11:07;;;;;;;3.88;3.00;;;;;;;23.76;68.27;100062.72;6289697;22;20018;-76
2021/06/12 10:13:33;;;;;;;5.63;3.10;;;;;;;23.44;69.64;100067.06;6316688;22;20007;-77
2021/06/12 10:16:00;;;;;;;3.80;3.28;;;;;;;23.24;70.71;100068.63;6289555;22;20339;-77
2021/06/12 10:18:25;;;;;;;3.33;3.03;;;;;;;23.24;70.88;100072.97;6289650;22;20011;-76
2021/06/12 10:20:51;;;;;;;4.53;3.58;;;;;;;23.87;69.41;100072.22;6289788;22;20231;-76
2021/06/12 10:23:19;;;;;;;5.28;3.45;;;;;;;24.12;69.35;100071.91;6289134;22;20011;-76
2021/06/12 10:25:45;;;;;;;3.63;3.03;;;;;;;23.52;69.40;100069.88;6316854;22;20011;-76
2021/06/12 10:28:11;;;;;;;4.72;3.17;;;;;;;22.99;70.43;100068.88;6316912;22;20443;-75
2021/06/12 10:30:37;;;;;;;5.15;3.90;;;;;;;22.95;72.29;100070.06;6289277;22;20019;-75
2021/06/12 10:33:05;;;;;;;6.80;4.30;;;;;;;22.71;73.35;100056.41;6316746;22;20096;-76
2021/06/12 10:35:31;;;;;;;5.40;3.58;;;;;;;23.15;72.41;100060.72;6289337;22;20099;-76
2021/06/12 10:38:00;;;;;;;5.32;3.47;;;;;;;23.11;71.17;100054.97;6316634;22;20022;-76
2021/06/12 10:40:56;;;;;;;5.68;3.67;;;;;;;23.62;71.54;100067.34;6289376;22;20275;-77
2021/06/12 10:43:23;;;;;;;5.50;3.55;;;;;;;23.01;73.82;100069.59;6316685;22;20007;-76
2021/06/12 10:46:08;;;;;;;4.63;3.33;;;;;;;23.61;69.84;100066.53;6316875;22;20011;-76
2021/06/12 10:48:53;;;;;;;4.47;2.95;;;;;;;24.46;68.32;100064.72;6263131;22;20007;-76
2021/06/12 10:51:25;;;;;;;5.25;2.95;;;;;;;24.56;67.57;100061.19;6316854;22;20030;-75
2021/06/12 10:54:09;;;;;;;;;;;;;;;23.37;71.57;100067.69;6317331;22;20063;-75
2021/06/12 10:56:59;;;;;;;4.65;2.75;;;;;;;23.21;71.98;100062.84;6316483;22;19919;-76
2021/06/12 10:59:37;;;;;;;4.70;2.83;;;;;;;23.49;70.33;100061.50;6289377;22;20056;-76
2021/06/12 11:02:07;;;;;;;4.30;3.00;;;;;;;23.36;72.37;100059.06;6316270;22;20015;-76
2021/06/12 11:04:42;;;;;;;3.60;2.92;;;;;;;24.02;69.53;100055.38;6289096;22;20099;-76
2021/06/12 11:07:32;;;;;;;3.25;2.67;;;;;;;25.14;65.78;100045.84;6289087;22;20011;-76
2021/06/12 11:10:10;;;;;;;3.50;2.50;;;;;;;25.05;65.04;100042.28;6289607;22;20238;-76
2021/06/12 11:12:46;;;;;;;2.67;2.45;;;;;;;23.78;66.64;100044.41;6316346;22;20069;-76
2021/06/12 11:15:17;;;;;;;3.67;2.42;;;;;;;24.55;65.66;100045.75;6289453;22;20007;-77
2021/06/12 11:17:44;;;;;;;2.70;2.50;;;;;;;24.74;65.23;100036.28;6316627;22;20027;-76
2021/06/12 11:20:13;;;;;;;4.00;2.88;;;;;;;24.72;66.79;100040.78;6316235;22;20015;-76
2021/06/12 11:22:58;;;;;;;3.38;2.90;;;;;;;24.22;69.15;100043.38;6289056;22;20007;-76
2021/06/12 11:25:24;;;;;;;3.42;2.80;;;;;;;23.32;69.47;100039.47;6316224;22;20012;-76
2021/06/12 11:28:13;;;;;;;2.83;2.53;;;;;;;23.65;68.81;100036.78;6289015;22;20010;-76
2021/06/12 11:30:39;;;;;;;4.53;2.13;;;;;;;23.22;69.71;100033.34;6288305;22;20039;-75
2021/06/12 11:33:12;;;;;;;3.42;2.60;;;;;;;23.95;68.16;100029.09;6316398;22;20008;-76
2021/06/12 11:35:39;;;;;;;2.40;2.15;;;;;;;23.92;66.38;100041.50;6288743;22;20231;-76
2021/06/12 11:38:38;;;;;;;2.47;2.28;;;;;;;24.01;65.93;100028.56;6288480;22;20007;-75
2021/06/12 11:41:08;;;;;;;3.25;2.60;;;;;;;23.86;66.17;100021.22;6306322;22;20133;-76
2021/06/12 11:43:49;;;;;;;3.40;2.27;;;;;;;24.69;63.79;100020.22;6316436;22;20458;-76
2021/06/12 11:46:19;;;;;;;2.40;2.20;;;;;;;24.08;64.78;100016.78;6316462;22;20137;-76
2021/06/12 11:48:47;;;;;;;2.40;2.20;;;;;;;24.35;63.12;100012.78;6288687;22;20355;-76
2021/06/12 11:51:14;;;;;;;2.53;2.33;;;;;;;24.96;61.02;100014.44;6316165;22;20366;-76
2021/06/12 11:53:41;;;;;;;2.40;2.20;;;;;;;25.34;60.02;100011.91;6316316;22;20101;-76
2021/06/12 11:56:08;;;;;;;3.35;2.13;;;;;;;24.76;61.15;100010.94;6316313;22;20034;-76
2021/06/12 11:58:34;;;;;;;2.40;2.20;;;;;;;24.88;62.18;100012.50;6315809;22;20017;-76
2021/06/12 12:00:59;;;;;;;2.38;1.95;;;;;;;25.40;58.79;100006.19;6288720;22;20011;-76
2021/06/12 12:03:25;;;;;;;3.97;1.98;;;;;;;25.64;56.80;99997.97;6288508;22;20257;-76
2021/06/12 12:05:58;;;;;;;2.13;1.90;;;;;;;26.06;56.42;99998.44;6288771;22;20011;-76
2021/06/12 12:08:25;;;;;;;2.17;1.70;;;;;;;26.93;52.79;99995.41;6315896;22;20035;-75
2021/06/12 12:10:53;;;;;;;1.73;1.55;;;;;;;25.97;54.90;99994.09;6315814;22;20204;-75
2021/06/12 12:13:38;;;;;;;2.85;1.60;;;;;;;26.38;53.58;99999.78;6288493;22;20010;-76
2021/06/12 12:16:21;;;;;;;1.83;1.63;;;;;;;26.47;53.69;99992.84;6288272;22;20034;-74
2021/06/12 12:21:34;;;;;;;1.40;1.30;;;;;;;26.87;51.06;99990.78;6316372;22;20022;-76